createdAt,value
2023-05-13T00:03:03.720Z,87.65
2023-05-13T00:06:25.364Z,86.55
2023-05-13T00:09:46.957Z,87.43
2023-05-13T00:13:08.838Z,87.04
2023-05-13T00:16:35.363Z,86.80
2023-05-13T00:20:01.619Z,87.63
2023-05-13T00:23:24.503Z,87.42
2023-05-13T00:26:46.077Z,88.08
2023-05-13T00:30:08.565Z,87.35
2023-05-13T00:33:30.109Z,86.98
2023-05-13T00:36:51.742Z,87.34
2023-05-13T00:40:31.629Z,87.06
2023-05-13T00:43:59.294Z,87.72
2023-05-13T00:47:21.963Z,87.55
2023-05-13T00:50:44.851Z,87.84
2023-05-13T00:54:09.026Z,87.79
2023-05-13T00:57:30.930Z,87.29
2023-05-13T01:01:17.589Z,87.08
2023-05-13T01:04:59.975Z,87.64
2023-05-13T01:08:34.141Z,87.81
2023-05-13T01:11:58.471Z,87.72
2023-05-13T01:15:26.080Z,88.25
2023-05-13T01:18:56.899Z,87.73
2023-05-13T01:22:18.535Z,88.20
2023-05-13T01:25:42.833Z,87.60
2023-05-13T01:29:06.923Z,88.11
2023-05-13T01:32:28.749Z,88.72
2023-05-13T01:35:52.107Z,88.36
2023-05-13T01:39:17.162Z,88.51
2023-05-13T01:42:41.027Z,87.92
2023-05-13T01:46:04.895Z,89.00
2023-05-13T01:49:26.950Z,88.48
2023-05-13T01:52:51.066Z,88.61
2023-05-13T01:56:12.636Z,88.66
2023-05-13T01:59:36.427Z,89.32
2023-05-13T02:03:00.617Z,88.99
2023-05-13T02:06:27.881Z,89.25
2023-05-13T02:09:58.962Z,89.50
2023-05-13T02:13:20.572Z,89.45
2023-05-13T02:16:42.245Z,88.61
2023-05-13T02:20:04.200Z,88.13
2023-05-13T02:23:28.025Z,88.40
2023-05-13T02:26:49.637Z,89.18
2023-05-13T02:30:11.485Z,88.35
2023-05-13T02:33:33.121Z,87.85
2023-05-13T02:36:54.744Z,86.37
2023-05-13T02:40:16.491Z,87.38
2023-05-13T02:43:38.092Z,88.38
2023-05-13T02:46:59.843Z,88.08
2023-05-13T02:50:21.795Z,88.65
2023-05-13T02:53:48.879Z,88.73
2023-05-13T02:57:14.931Z,88.53
2023-05-13T03:00:38.881Z,87.71
2023-05-13T03:04:00.439Z,88.12
2023-05-13T03:07:22.702Z,88.14
2023-05-13T03:10:44.311Z,88.62
2023-05-13T03:14:05.944Z,87.22
2023-05-13T03:17:33.442Z,87.76
2023-05-13T03:20:55.456Z,88.23
2023-05-13T03:24:17.001Z,87.85
2023-05-13T03:27:41.181Z,87.18
2023-05-13T03:31:05.080Z,87.13
2023-05-13T03:34:29.618Z,87.71
2023-05-13T03:37:53.652Z,88.15
2023-05-13T03:41:17.527Z,88.81
2023-05-13T03:44:39.660Z,88.43
2023-05-13T03:48:01.677Z,89.03
2023-05-13T03:51:28.111Z,88.71
2023-05-13T03:54:52.090Z,88.50
2023-05-13T03:58:15.545Z,89.00
2023-05-13T04:01:39.480Z,88.78
2023-05-13T04:05:06.059Z,88.37
2023-05-13T04:08:29.969Z,87.77
2023-05-13T04:11:54.062Z,88.04
2023-05-13T04:15:15.753Z,88.28
2023-05-13T04:18:37.362Z,88.60
2023-05-13T04:21:58.972Z,88.52
2023-05-13T04:25:20.582Z,88.95
2023-05-13T04:28:42.268Z,88.24
2023-05-13T04:32:06.455Z,88.19
2023-05-13T04:35:28.054Z,89.07
2023-05-13T04:38:53.145Z,88.55
2023-05-13T04:42:17.250Z,88.74
2023-05-13T04:45:39.654Z,89.13
2023-05-13T04:49:06.445Z,89.47
2023-05-13T04:52:30.746Z,89.07
2023-05-13T04:56:00.581Z,88.73
2023-05-13T04:59:22.820Z,88.53
2023-05-13T05:02:44.439Z,88.53
2023-05-13T05:06:06.319Z,89.03
2023-05-13T05:09:28.024Z,88.35
2023-05-13T05:12:49.715Z,88.72
2023-05-13T05:16:11.325Z,88.44
2023-05-13T05:19:32.993Z,87.50
2023-05-13T05:22:57.673Z,87.85
2023-05-13T05:26:19.351Z,87.68
2023-05-13T05:29:40.923Z,87.88
2023-05-13T05:33:02.560Z,87.05
2023-05-13T05:36:24.221Z,87.70
2023-05-13T05:39:45.925Z,87.43
2023-05-13T05:43:13.788Z,87.25
2023-05-13T05:46:35.538Z,88.23
2023-05-13T05:50:00.599Z,87.68
2023-05-13T05:53:24.427Z,88.39
2023-05-13T05:56:46.043Z,87.74
2023-05-13T06:00:10.720Z,87.81
2023-05-13T06:03:34.734Z,87.77
2023-05-13T06:06:58.749Z,87.96
2023-05-13T06:10:25.363Z,88.09
2023-05-13T06:13:46.960Z,88.22
2023-05-13T06:17:08.572Z,87.39
2023-05-13T06:20:30.297Z,87.21
2023-05-13T06:23:54.230Z,87.74
2023-05-13T06:27:15.791Z,87.78
2023-05-13T06:30:39.636Z,88.73
2023-05-13T06:34:03.402Z,88.99
2023-05-13T06:37:25.072Z,88.63
2023-05-13T06:40:49.106Z,88.32
2023-05-13T06:44:13.125Z,88.53
2023-05-13T06:47:37.023Z,87.91
2023-05-13T06:51:01.569Z,87.48
2023-05-13T06:54:27.088Z,88.30
2023-05-13T06:57:51.530Z,88.50
2023-05-13T07:01:18.543Z,89.07
2023-05-13T07:04:40.230Z,88.91
2023-05-13T07:08:06.576Z,88.03
2023-05-13T07:11:29.091Z,89.14
2023-05-13T07:14:53.195Z,88.93
2023-05-13T07:18:17.172Z,89.21
2023-05-13T07:21:39.220Z,89.17
2023-05-13T07:25:03.083Z,88.76
2023-05-13T07:28:27.284Z,88.24
2023-05-13T07:31:51.111Z,88.49
2023-05-13T07:35:18.014Z,89.32
2023-05-13T07:38:39.642Z,88.33
2023-05-13T07:42:02.279Z,88.40
2023-05-13T07:45:24.227Z,87.88
2023-05-13T07:48:46.066Z,87.99
2023-05-13T07:52:08.057Z,88.28
2023-05-13T07:55:31.969Z,89.01
2023-05-13T07:58:53.564Z,89.21
2023-05-13T08:02:15.377Z,88.62
2023-05-13T08:05:37.210Z,88.84
2023-05-13T08:09:01.728Z,88.31
2023-05-13T08:12:28.144Z,88.62
2023-05-13T08:15:49.822Z,88.46
2023-05-13T08:19:11.559Z,87.58
2023-05-13T08:22:33.180Z,87.12
2023-05-13T08:25:54.768Z,92.08
2023-05-13T08:29:19.181Z,92.66
2023-05-13T08:32:40.901Z,87.16
2023-05-13T08:36:02.585Z,89.27
2023-05-13T08:39:24.210Z,86.08
2023-05-13T08:42:48.097Z,86.83
2023-05-13T08:46:11.988Z,81.71
2023-05-13T08:49:35.277Z,80.43
2023-05-13T08:53:06.073Z,81.54
2023-05-13T08:56:29.968Z,82.67
2023-05-13T08:59:54.093Z,82.66
2023-05-13T09:03:18.936Z,83.97
2023-05-13T09:06:42.906Z,84.30
2023-05-13T09:10:06.906Z,84.18
2023-05-13T09:13:28.514Z,84.68
2023-05-13T09:16:50.293Z,91.35
2023-05-13T09:20:14.293Z,87.98
2023-05-13T09:23:39.454Z,86.09
2023-05-13T09:27:03.281Z,84.71
2023-05-13T09:30:28.321Z,85.86
2023-05-13T09:33:53.237Z,83.70
2023-05-13T09:37:18.139Z,81.84
2023-05-13T09:40:42.012Z,79.61
2023-05-13T09:44:06.365Z,80.00
2023-05-13T09:47:30.747Z,79.88
2023-05-13T09:50:53.406Z,78.99
2023-05-13T09:54:17.621Z,79.80
2023-05-13T09:57:42.181Z,81.02
2023-05-13T10:01:04.881Z,81.93
2023-05-13T10:04:27.217Z,80.85
2023-05-13T10:07:51.128Z,81.37
2023-05-13T10:11:15.622Z,81.62
2023-05-13T10:14:38.142Z,82.62
2023-05-13T10:18:00.325Z,82.11
2023-05-13T10:21:22.648Z,81.19
2023-05-13T10:24:46.555Z,86.41
2023-05-13T10:28:08.895Z,81.16
2023-05-13T10:31:31.535Z,77.24
2023-05-13T10:35:02.240Z,78.11
2023-05-13T10:38:43.495Z,78.51
2023-05-13T10:42:45.489Z,78.41
2023-05-13T10:46:13.567Z,77.37
2023-05-13T10:49:36.377Z,77.98
2023-05-13T10:52:59.046Z,77.19
2023-05-13T10:56:28.877Z,78.19
2023-05-13T11:00:15.974Z,77.61
2023-05-13T11:03:42.646Z,76.95
2023-05-13T11:07:22.230Z,74.86
2023-05-13T11:10:54.973Z,73.87
2023-05-13T11:14:23.299Z,76.55
2023-05-13T11:17:45.800Z,77.91
2023-05-13T11:21:12.397Z,77.59
2023-05-13T11:24:37.090Z,75.53
2023-05-13T11:27:58.651Z,75.96
2023-05-13T11:31:25.164Z,76.05
2023-05-13T11:34:51.726Z,74.91
2023-05-13T11:38:27.201Z,73.95
2023-05-13T11:42:01.559Z,74.63
2023-05-13T11:45:25.102Z,75.35
2023-05-13T11:48:49.320Z,76.48
2023-05-13T11:52:19.183Z,75.74
2023-05-13T11:55:40.796Z,74.27
2023-05-13T11:59:15.674Z,75.07
2023-05-13T12:02:40.426Z,75.43
2023-05-13T12:06:03.374Z,75.00
2023-05-13T12:09:25.403Z,76.07
2023-05-13T12:12:47.172Z,75.38
2023-05-13T12:16:08.989Z,72.05
2023-05-13T12:19:32.872Z,72.62
2023-05-13T12:22:57.307Z,74.31
2023-05-13T12:26:19.667Z,73.60
2023-05-13T12:29:44.878Z,73.46
2023-05-13T12:33:12.133Z,73.77
2023-05-13T12:36:37.791Z,75.04
2023-05-13T12:40:12.747Z,74.49
2023-05-13T12:43:36.743Z,73.49
2023-05-13T12:47:02.283Z,73.66
2023-05-13T12:50:26.664Z,75.01
2023-05-13T12:53:48.299Z,74.43
2023-05-13T12:57:10.176Z,75.36
2023-05-13T13:00:34.348Z,73.33
2023-05-13T13:03:56.139Z,73.43
2023-05-13T13:07:22.676Z,72.82
2023-05-13T13:10:44.273Z,72.90
2023-05-13T13:14:05.871Z,72.35
2023-05-13T13:17:27.677Z,70.76
2023-05-13T13:20:52.424Z,71.35
2023-05-13T13:24:18.832Z,71.89
2023-05-13T13:27:40.438Z,71.14
2023-05-13T13:31:07.715Z,70.56
2023-05-13T13:34:31.783Z,70.99
2023-05-13T13:37:56.049Z,71.57
2023-05-13T13:41:17.627Z,73.93
2023-05-13T13:44:39.502Z,73.13
2023-05-13T13:48:01.516Z,73.12
2023-05-13T13:51:23.221Z,71.81
2023-05-13T13:54:44.817Z,72.98
2023-05-13T13:58:08.613Z,72.97
2023-05-13T14:01:33.059Z,73.87
2023-05-13T14:04:54.882Z,73.68
2023-05-13T14:08:16.554Z,73.08
2023-05-13T14:11:38.165Z,73.38
2023-05-13T14:15:01.927Z,73.90
2023-05-13T14:18:23.721Z,72.97
2023-05-13T14:21:46.673Z,73.88
2023-05-13T14:25:12.133Z,73.01
2023-05-13T14:28:33.758Z,72.01
2023-05-13T14:31:55.385Z,72.76
2023-05-13T14:35:19.364Z,72.54
2023-05-13T14:38:43.752Z,72.16
2023-05-13T14:42:05.856Z,72.41
2023-05-13T14:45:27.710Z,73.03
2023-05-13T14:48:49.369Z,72.89
2023-05-13T14:52:10.920Z,72.10
2023-05-13T14:55:37.633Z,72.21
2023-05-13T14:58:59.252Z,71.83
2023-05-13T15:02:25.855Z,72.83
2023-05-13T15:05:47.622Z,72.98
2023-05-13T15:09:11.405Z,72.17
2023-05-13T15:12:33.007Z,73.03
2023-05-13T15:15:59.832Z,72.43
2023-05-13T15:19:23.710Z,73.45
2023-05-13T15:22:47.809Z,72.90
2023-05-13T15:26:09.435Z,73.76
2023-05-13T15:29:33.787Z,72.56
2023-05-13T15:32:55.407Z,73.24
2023-05-13T15:36:19.334Z,72.16
2023-05-13T15:39:43.576Z,73.12
2023-05-13T15:43:05.382Z,74.23
2023-05-13T15:46:30.009Z,74.25
2023-05-13T15:49:54.272Z,72.67
2023-05-13T15:53:19.412Z,72.14
2023-05-13T15:56:46.094Z,72.44
2023-05-13T16:00:08.679Z,71.58
2023-05-13T16:03:30.696Z,72.69
2023-05-13T16:06:54.502Z,70.81
2023-05-13T16:10:18.180Z,70.42
2023-05-13T16:13:42.186Z,71.11
2023-05-13T16:17:06.036Z,70.34
2023-05-13T16:20:27.601Z,70.86
2023-05-13T16:23:51.058Z,72.02
2023-05-13T16:27:12.714Z,70.68
2023-05-13T16:30:34.656Z,72.07
2023-05-13T16:33:58.975Z,72.86
2023-05-13T16:37:23.298Z,72.15
2023-05-13T16:40:44.863Z,73.40
2023-05-13T16:44:08.736Z,72.38
2023-05-13T16:47:33.561Z,73.94
2023-05-13T16:50:57.677Z,75.75
2023-05-13T16:54:19.335Z,74.30
2023-05-13T16:57:41.034Z,75.19
2023-05-13T17:01:05.160Z,73.93
2023-05-13T17:04:28.461Z,71.45
2023-05-13T17:07:50.063Z,73.38
2023-05-13T17:11:16.827Z,72.24
2023-05-13T17:14:38.453Z,74.31
2023-05-13T17:18:02.542Z,73.90
2023-05-13T17:21:24.186Z,73.67
2023-05-13T17:24:45.845Z,74.34
2023-05-13T17:28:08.068Z,74.12
2023-05-13T17:31:29.750Z,74.70
2023-05-13T17:34:51.368Z,74.99
2023-05-13T17:38:15.269Z,74.56
2023-05-13T17:41:39.174Z,75.19
2023-05-13T17:45:02.091Z,75.28
2023-05-13T17:48:23.934Z,75.52
2023-05-13T17:51:45.596Z,75.72
2023-05-13T17:55:10.083Z,75.71
2023-05-13T17:58:31.775Z,76.34
2023-05-13T18:01:55.921Z,76.50
2023-05-13T18:05:17.788Z,76.62
2023-05-13T18:08:42.135Z,76.61
2023-05-13T18:12:04.021Z,76.44
2023-05-13T18:15:30.700Z,77.47
2023-05-13T18:18:52.392Z,76.31
2023-05-13T18:22:14.060Z,76.68
2023-05-13T18:25:45.421Z,76.55
2023-05-13T18:29:16.492Z,77.02
2023-05-13T18:32:40.797Z,77.65
2023-05-13T18:36:02.584Z,77.55
2023-05-13T18:39:24.203Z,77.57
2023-05-13T18:42:45.764Z,77.65
2023-05-13T18:46:07.447Z,78.19
2023-05-13T18:49:29.452Z,78.31
2023-05-13T18:52:51.199Z,77.14
2023-05-13T18:56:16.133Z,77.59
2023-05-13T18:59:38.315Z,77.25
2023-05-13T19:03:02.295Z,76.73
2023-05-13T19:06:24.207Z,76.41
2023-05-13T19:09:45.802Z,76.31
2023-05-13T19:13:07.599Z,76.16
2023-05-13T19:16:29.326Z,76.62
2023-05-13T19:19:57.128Z,76.66
2023-05-13T19:23:21.222Z,76.66
2023-05-13T19:26:43.026Z,76.91
2023-05-13T19:30:08.191Z,77.38
2023-05-13T19:33:30.025Z,77.54
2023-05-13T19:36:56.570Z,77.93
2023-05-13T19:40:18.473Z,77.31
2023-05-13T19:43:40.052Z,77.22
2023-05-13T19:47:02.083Z,77.64
2023-05-13T19:50:26.418Z,77.96
2023-05-13T19:53:48.033Z,77.22
2023-05-13T19:57:09.732Z,78.31
2023-05-13T20:00:31.382Z,77.76
2023-05-13T20:03:55.509Z,78.43
2023-05-13T20:07:18.253Z,78.19
2023-05-13T20:10:42.139Z,77.66
2023-05-13T20:14:06.063Z,77.85
2023-05-13T20:17:27.818Z,78.09
2023-05-13T20:20:49.694Z,78.25
2023-05-13T20:24:11.528Z,77.50
2023-05-13T20:27:33.176Z,77.90
2023-05-13T20:30:55.663Z,78.33
2023-05-13T20:34:19.687Z,78.24
2023-05-13T20:37:41.832Z,79.20
2023-05-13T20:41:06.236Z,78.99
2023-05-13T20:44:30.801Z,79.51
2023-05-13T20:47:52.487Z,79.45
2023-05-13T20:51:16.642Z,79.70
2023-05-13T20:54:38.738Z,79.67
2023-05-13T20:58:00.370Z,79.99
2023-05-13T21:01:24.814Z,79.42
2023-05-13T21:04:49.391Z,79.85
2023-05-13T21:08:11.167Z,80.08
2023-05-13T21:11:35.754Z,80.09
2023-05-13T21:14:57.375Z,80.28
2023-05-13T21:18:21.281Z,80.64
2023-05-13T21:21:42.887Z,80.42
2023-05-13T21:25:05.018Z,80.67
2023-05-13T21:28:26.621Z,80.68
2023-05-13T21:31:50.797Z,80.34
2023-05-13T21:35:14.597Z,79.87
2023-05-13T21:38:36.215Z,80.55
2023-05-13T21:42:00.029Z,80.40
2023-05-13T21:45:27.952Z,80.16
2023-05-13T21:48:52.600Z,79.61
2023-05-13T21:52:18.723Z,80.41
2023-05-13T21:55:42.540Z,80.72
2023-05-13T21:59:04.134Z,80.06
2023-05-13T22:02:25.845Z,80.21
2023-05-13T22:05:47.535Z,80.20
2023-05-13T22:09:11.741Z,80.07
2023-05-13T22:12:35.918Z,80.24
2023-05-13T22:15:57.697Z,80.38
2023-05-13T22:19:21.652Z,80.40
2023-05-13T22:22:45.629Z,79.81
2023-05-13T22:26:09.487Z,80.26
2023-05-13T22:29:31.437Z,80.17
2023-05-13T22:32:53.367Z,79.80
2023-05-13T22:36:17.487Z,79.80
2023-05-13T22:39:42.510Z,79.19
2023-05-13T22:43:04.208Z,79.11
2023-05-13T22:46:25.880Z,79.02
2023-05-13T22:49:47.531Z,79.69
2023-05-13T22:53:11.446Z,79.51
2023-05-13T22:56:33.121Z,79.22
2023-05-13T22:59:57.233Z,78.86
2023-05-13T23:03:18.834Z,79.17
2023-05-13T23:06:41.388Z,79.43
2023-05-13T23:10:03.414Z,79.56
2023-05-13T23:13:27.584Z,79.77
2023-05-13T23:16:51.792Z,80.03
2023-05-13T23:20:15.671Z,80.24
2023-05-13T23:23:40.196Z,79.58
2023-05-13T23:27:01.812Z,80.05
2023-05-13T23:30:23.826Z,79.38
2023-05-13T23:33:45.588Z,79.04
2023-05-13T23:37:07.208Z,79.12
2023-05-13T23:40:30.861Z,79.12
2023-05-13T23:43:52.450Z,78.56
2023-05-13T23:47:18.569Z,78.31
2023-05-13T23:50:41.793Z,79.06
2023-05-13T23:54:03.516Z,78.23
2023-05-13T23:57:27.311Z,77.45
